Time;durP1;ratioP1;P1;durP2;ratioP2;P2;SDS_P1;SDS_P2;PMS_P1;PMS_P2;Temp;Humidity;BMP_temperature;BMP_pressure;BME280_temperature;BME280_humidity;BME280_pressure;Samples;Min_cycle;Max_cycle;Signal;HPM_P1;HPM_P2
2023/09/26 00:01:02;;;;;;;6.68;4.35;;;;;;;;;;6224867;28;20048;-78
2023/09/26 00:04:05;;;;;;;6.38;4.53;;;;;;;;;;6222293;28;20057;-78
2023/09/26 00:07:07;;;;;;;7.47;4.50;;;;;;;;;;6199856;28;20141;-81
2023/09/26 00:10:10;;;;;;;7.55;4.68;;;;;;;;;;6219075;28;20052;-81
2023/09/26 00:13:13;;;;;;;8.18;5.35;;;;;;;;;;6218323;28;20109;-80
2023/09/26 00:16:15;;;;;;;6.65;5.03;;;;;;;;;;6219538;28;20042;-80
2023/09/26 00:19:17;;;;;;;8.90;4.68;;;;;;;;;;6217903;28;20044;-78
2023/09/26 00:22:20;;;;;;;5.95;4.13;;;;;;;;;;6217319;28;20052;-78
2023/09/26 00:25:22;;;;;;;8.60;4.10;;;;;;;;;;6211753;28;20057;-81
2023/09/26 00:28:24;;;;;;;6.10;4.80;;;;;;;;;;6216462;28;20038;-79
2023/09/26 00:31:26;;;;;;;5.45;4.20;;;;;;;;;;6195287;28;20041;-81
2023/09/26 00:34:28;;;;;;;5.72;3.75;;;;;;;;;;6211740;28;20065;-79
2023/09/26 00:37:29;;;;;;;6.47;3.97;;;;;;;;;;6211228;28;20427;-82
2023/09/26 00:40:31;;;;;;;6.22;4.38;;;;;;;;;;6211681;28;20056;-79
2023/09/26 00:43:35;;;;;;;7.90;4.75;;;;;;;;;;6213749;28;20081;-79
2023/09/26 00:46:37;;;;;;;5.72;4.32;;;;;;;;;;6212857;28;20042;-81
2023/09/26 00:49:39;;;;;;;7.43;4.77;;;;;;;;;;6192324;28;20123;-78
2023/09/26 00:52:46;;;;;;;10.43;5.20;;;;;;;;;;6192147;28;20042;-82
2023/09/26 00:55:51;;;;;;;8.57;4.70;;;;;;;;;;6210440;28;20056;-78
2023/09/26 00:58:53;;;;;;;10.00;4.72;;;;;;;;;;6210465;28;20053;-79
2023/09/26 01:01:55;;;;;;;10.18;5.15;;;;;;;;;;6207991;28;20053;-82
2023/09/26 01:04:57;;;;;;;11.02;5.50;;;;;;;;;;6206693;28;20054;-81
2023/09/26 01:07:59;;;;;;;11.70;6.00;;;;;;;;;;6212920;28;20077;-81
2023/09/26 01:11:01;;;;;;;12.38;5.32;;;;;;;;;;6207804;28;20234;-79
2023/09/26 01:14:03;;;;;;;10.68;4.85;;;;;;;;;;6210734;28;20054;-78
2023/09/26 01:17:04;;;;;;;8.52;5.63;;;;;;;;;;6191284;28;20042;-78
2023/09/26 01:20:12;;;;;;;10.65;5.72;;;;;;;;;;6207629;28;20054;-80
2023/09/26 01:23:16;;;;;;;8.75;4.97;;;;;;;;;;6209373;28;20056;-79
2023/09/26 01:26:17;;;;;;;10.35;5.15;;;;;;;;;;6190068;28;20068;-80
2023/09/26 01:29:19;;;;;;;9.60;5.50;;;;;;;;;;6191986;28;20069;-81
2023/09/26 01:32:21;;;;;;;9.38;5.68;;;;;;;;;;6204639;28;20045;-82
2023/09/26 01:35:23;;;;;;;10.07;5.32;;;;;;;;;;6193335;28;20049;-78
2023/09/26 01:38:24;;;;;;;15.88;5.72;;;;;;;;;;6203628;28;20057;-81
2023/09/26 01:41:27;;;;;;;12.88;5.47;;;;;;;;;;6221601;28;20515;-80
2023/09/26 01:44:29;;;;;;;9.73;5.20;;;;;;;;;;6206133;28;20046;-81
2023/09/26 01:47:40;;;;;;;14.55;4.95;;;;;;;;;;6200821;28;20056;-77
2023/09/26 01:50:42;;;;;;;8.98;5.30;;;;;;;;;;6208186;28;20200;-77
2023/09/26 01:53:44;;;;;;;10.18;5.38;;;;;;;;;;6202873;28;20701;-80
2023/09/26 01:56:45;;;;;;;12.20;5.30;;;;;;;;;;6189797;28;20046;-80
2023/09/26 01:59:47;;;;;;;9.18;5.13;;;;;;;;;;6186049;28;20045;-79
2023/09/26 02:02:51;;;;;;;9.30;5.45;;;;;;;;;;6202227;28;20050;-77
2023/09/26 02:05:56;;;;;;;7.65;4.88;;;;;;;;;;6207539;28;20643;-82
2023/09/26 02:08:58;;;;;;;9.30;5.15;;;;;;;;;;6200514;28;20060;-79
2023/09/26 02:12:03;;;;;;;8.20;4.85;;;;;;;;;;6202189;28;20053;-80
2023/09/26 02:15:08;;;;;;;8.95;4.75;;;;;;;;;;6191142;28;20041;-77
2023/09/26 02:18:09;;;;;;;7.03;4.57;;;;;;;;;;6190378;28;20056;-79
2023/09/26 02:21:15;;;;;;;6.70;4.35;;;;;;;;;;6207080;28;20121;-78
2023/09/26 02:24:17;;;;;;;7.63;4.57;;;;;;;;;;6221800;28;20070;-78
2023/09/26 02:27:19;;;;;;;5.68;4.20;;;;;;;;;;6210690;28;20045;-82
2023/09/26 02:30:24;;;;;;;;;;;;;;;;;;6208864;28;20078;-81
2023/09/26 02:33:25;;;;;;;10.65;4.90;;;;;;;;;;6207640;28;19921;-81
2023/09/26 02:36:27;;;;;;;10.55;5.35;;;;;;;;;;6206500;28;20048;-82
2023/09/26 02:39:29;;;;;;;6.43;4.47;;;;;;;;;;6205313;28;20045;-81
2023/09/26 02:42:32;;;;;;;8.75;4.57;;;;;;;;;;6205923;28;20061;-82
2023/09/26 02:45:34;;;;;;;5.72;4.30;;;;;;;;;;6209277;28;20057;-81
2023/09/26 02:48:36;;;;;;;8.13;4.75;;;;;;;;;;6206386;28;20110;-82
2023/09/26 02:51:39;;;;;;;;;;;;;;;;;;6205971;28;20073;-81
2023/09/26 02:54:41;;;;;;;14.73;5.35;;;;;;;;;;6205271;28;20410;-78
2023/09/26 02:57:43;;;;;;;18.92;4.80;;;;;;;;;;6205959;28;20566;-79
2023/09/26 03:00:45;;;;;;;14.90;4.40;;;;;;;;;;6205077;28;21696;-78
2023/09/26 03:03:48;;;;;;;7.40;4.57;;;;;;;;;;6206516;28;20054;-81
2023/09/26 03:06:50;;;;;;;6.90;4.32;;;;;;;;;;6207918;28;20049;-78
2023/09/26 03:09:52;;;;;;;5.90;3.92;;;;;;;;;;6205243;28;20104;-79
2023/09/26 03:12:54;;;;;;;7.40;3.50;;;;;;;;;;6207737;28;20061;-80
2023/09/26 03:15:56;;;;;;;10.02;3.63;;;;;;;;;;6182827;28;20092;-79
2023/09/26 03:18:58;;;;;;;5.70;4.00;;;;;;;;;;6202073;28;20515;-79
2023/09/26 03:22:02;;;;;;;5.43;3.72;;;;;;;;;;6192074;28;20504;-80
2023/09/26 03:25:05;;;;;;;6.38;4.13;;;;;;;;;;6189006;28;20053;-78
2023/09/26 03:28:09;;;;;;;6.95;4.55;;;;;;;;;;6209131;28;20407;-78
2023/09/26 03:31:11;;;;;;;4.88;3.75;;;;;;;;;;6209098;28;20162;-80
2023/09/26 03:34:14;;;;;;;6.30;4.00;;;;;;;;;;6203946;28;20088;-78
2023/09/26 03:37:16;;;;;;;7.80;4.38;;;;;;;;;;6197327;28;20068;-78
2023/09/26 03:40:17;;;;;;;7.32;4.63;;;;;;;;;;6203836;28;20042;-79
2023/09/26 03:43:19;;;;;;;7.10;4.72;;;;;;;;;;6206657;28;20060;-79
2023/09/26 03:46:21;;;;;;;7.65;4.60;;;;;;;;;;6207892;28;20123;-78
2023/09/26 03:49:23;;;;;;;5.30;3.92;;;;;;;;;;6209931;28;20064;-81
2023/09/26 03:52:24;;;;;;;7.05;4.25;;;;;;;;;;6211377;28;20050;-79
2023/09/26 03:55:26;;;;;;;7.72;4.60;;;;;;;;;;6210834;28;20034;-81
2023/09/26 03:58:28;;;;;;;6.45;4.28;;;;;;;;;;6195962;28;20050;-79
2023/09/26 04:01:30;;;;;;;8.85;4.72;;;;;;;;;;6211437;28;20046;-79
2023/09/26 04:04:31;;;;;;;9.00;4.97;;;;;;;;;;6211604;28;20104;-81
2023/09/26 04:07:33;;;;;;;8.88;4.93;;;;;;;;;;6212127;28;20634;-82
2023/09/26 04:10:38;;;;;;;7.93;4.30;;;;;;;;;;6209758;28;20046;-80
2023/09/26 04:13:41;;;;;;;8.65;4.57;;;;;;;;;;6210668;28;20041;-78
2023/09/26 04:16:43;;;;;;;15.38;4.70;;;;;;;;;;6210892;28;20052;-80
2023/09/26 04:19:47;;;;;;;8.40;4.07;;;;;;;;;;6209565;28;20092;-77
2023/09/26 04:22:49;;;;;;;7.45;5.30;;;;;;;;;;6206793;28;20050;-79
2023/09/26 04:25:53;;;;;;;9.35;5.28;;;;;;;;;;6207115;28;20076;-77
2023/09/26 04:28:55;;;;;;;7.30;5.03;;;;;;;;;;6211683;28;20428;-78
2023/09/26 04:31:56;;;;;;;7.05;5.03;;;;;;;;;;6215775;28;20499;-80
2023/09/26 04:34:58;;;;;;;5.57;4.20;;;;;;;;;;6191854;28;20042;-80
2023/09/26 04:38:00;;;;;;;6.22;4.22;;;;;;;;;;6215117;28;20046;-81
2023/09/26 04:41:03;;;;;;;5.70;4.13;;;;;;;;;;6212371;28;20072;-78
2023/09/26 04:44:07;;;;;;;5.22;4.13;;;;;;;;;;6212721;28;20121;-81
2023/09/26 04:47:08;;;;;;;5.72;4.28;;;;;;;;;;6211951;28;20125;-81
2023/09/26 04:50:11;;;;;;;6.55;4.30;;;;;;;;;;6215349;28;20135;-81
2023/09/26 04:53:13;;;;;;;9.07;5.00;;;;;;;;;;6213049;28;20038;-80
2023/09/26 04:56:14;;;;;;;7.97;4.90;;;;;;;;;;6211780;28;20076;-80
2023/09/26 04:59:17;;;;;;;5.43;3.72;;;;;;;;;;6214341;28;20054;-81
2023/09/26 05:02:18;;;;;;;4.75;3.17;;;;;;;;;;6212857;28;20072;-79
2023/09/26 05:05:21;;;;;;;5.35;3.67;;;;;;;;;;6194224;28;20057;-77
2023/09/26 05:08:22;;;;;;;4.72;3.50;;;;;;;;;;6224783;28;20053;-81
2023/09/26 05:11:26;;;;;;;4.53;3.35;;;;;;;;;;6211020;28;20045;-80
2023/09/26 05:14:27;;;;;;;6.03;4.07;;;;;;;;;;6215984;28;20046;-79
2023/09/26 05:17:29;;;;;;;5.20;3.92;;;;;;;;;;6213581;28;20046;-78
2023/09/26 05:20:31;;;;;;;6.18;3.75;;;;;;;;;;6213081;28;20128;-77
2023/09/26 05:23:33;;;;;;;5.95;4.05;;;;;;;;;;6212474;28;20476;-77
2023/09/26 05:26:35;;;;;;;5.97;4.25;;;;;;;;;;6215932;28;20046;-80
2023/09/26 05:29:37;;;;;;;5.60;4.10;;;;;;;;;;6212742;28;20038;-80
2023/09/26 05:32:40;;;;;;;5.28;3.63;;;;;;;;;;6207597;28;20470;-80
2023/09/26 05:35:42;;;;;;;6.45;4.10;;;;;;;;;;6215268;28;20054;-80
2023/09/26 05:38:43;;;;;;;4.65;3.42;;;;;;;;;;6211427;28;20054;-80
2023/09/26 05:41:45;;;;;;;5.95;3.72;;;;;;;;;;6211719;28;20762;-80
2023/09/26 05:44:47;;;;;;;5.80;4.03;;;;;;;;;;6214685;28;20053;-80
2023/09/26 05:47:48;;;;;;;5.78;3.95;;;;;;;;;;6212599;28;20049;-77
2023/09/26 05:50:57;;;;;;;6.13;4.20;;;;;;;;;;6212424;28;20056;-80
2023/09/26 05:53:59;;;;;;;6.43;4.78;;;;;;;;;;6211851;28;20419;-80
2023/09/26 05:57:03;;;;;;;7.75;5.63;;;;;;;;;;6213055;28;20149;-77
2023/09/26 06:00:11;;;;;;;13.57;5.80;;;;;;;;;;6211849;28;20834;-78
2023/09/26 06:03:14;;;;;;;6.35;4.93;;;;;;;;;;6213724;28;20061;-79
2023/09/26 06:06:16;;;;;;;7.97;5.45;;;;;;;;;;6233562;28;20049;-83
2023/09/26 06:09:17;;;;;;;7.45;4.70;;;;;;;;;;6199978;28;20042;-80
2023/09/26 06:12:19;;;;;;;10.57;4.75;;;;;;;;;;6218172;28;20042;-81
2023/09/26 06:15:22;;;;;;;7.82;5.13;;;;;;;;;;6218958;28;20182;-84
2023/09/26 06:18:25;;;;;;;6.72;4.60;;;;;;;;;;6214732;28;20095;-80
2023/09/26 06:21:27;;;;;;;;;;;;;;;;;;6212035;28;20038;-82
2023/09/26 06:24:28;;;;;;;6.70;3.97;;;;;;;;;;6212582;28;19991;-81
2023/09/26 06:27:35;;;;;;;6.15;4.00;;;;;;;;;;6213376;28;20046;-80
2023/09/26 06:30:37;;;;;;;6.20;4.75;;;;;;;;;;6217399;28;20054;-83
2023/09/26 06:33:39;;;;;;;7.28;4.60;;;;;;;;;;6215530;28;20042;-81
2023/09/26 06:36:41;;;;;;;7.63;4.68;;;;;;;;;;6217318;28;20055;-79
2023/09/26 06:39:42;;;;;;;9.10;5.13;;;;;;;;;;6217699;28;20117;-78
2023/09/26 06:42:44;;;;;;;6.03;4.28;;;;;;;;;;6221377;28;20168;-82
2023/09/26 06:45:46;;;;;;;5.57;4.50;;;;;;;;;;6216926;28;21430;-80
2023/09/26 06:48:48;;;;;;;6.47;4.20;;;;;;;;;;6217033;28;20061;-80
2023/09/26 06:51:51;;;;;;;6.15;4.25;;;;;;;;;;6225989;28;20056;-81
2023/09/26 06:54:53;;;;;;;4.93;4.38;;;;;;;;;;6213641;28;20050;-79
2023/09/26 06:57:55;;;;;;;6.63;4.15;;;;;;;;;;6216603;28;20058;-82
2023/09/26 07:00:57;;;;;;;11.87;4.23;;;;;;;;;;6217301;28;20053;-77
2023/09/26 07:03:59;;;;;;;6.30;3.92;;;;;;;;;;6217488;28;20045;-79
2023/09/26 07:07:02;;;;;;;5.25;3.78;;;;;;;;;;6199548;28;20378;-79
2023/09/26 07:10:07;;;;;;;7.45;4.10;;;;;;;;;;6216784;28;20054;-79
2023/09/26 07:13:08;;;;;;;8.88;4.18;;;;;;;;;;6222585;28;20133;-82
2023/09/26 07:16:33;;;;;;;6.05;4.05;;;;;;;;;;6215719;28;20042;-79
2023/09/26 07:19:35;;;;;;;7.28;4.50;;;;;;;;;;6218119;28;20050;-80
2023/09/26 07:22:37;;;;;;;4.30;3.60;;;;;;;;;;6215693;28;20050;-80
2023/09/26 07:25:39;;;;;;;6.88;3.70;;;;;;;;;;6214319;28;20100;-79
2023/09/26 07:28:41;;;;;;;7.68;4.65;;;;;;;;;;6222053;28;20037;-80
2023/09/26 07:31:43;;;;;;;4.33;3.67;;;;;;;;;;6217230;28;20048;-78
2023/09/26 07:34:45;;;;;;;7.72;4.35;;;;;;;;;;6215791;28;20452;-80
2023/09/26 07:37:47;;;;;;;5.38;4.40;;;;;;;;;;6215935;28;20046;-83
2023/09/26 07:40:49;;;;;;;6.15;3.97;;;;;;;;;;6214885;28;20674;-81
2023/09/26 07:43:51;;;;;;;6.05;4.10;;;;;;;;;;6221588;28;20105;-77
2023/09/26 07:46:53;;;;;;;5.63;3.70;;;;;;;;;;6224432;28;20061;-79
2023/09/26 07:49:55;;;;;;;5.22;3.30;;;;;;;;;;6220658;28;20567;-79
2023/09/26 07:52:57;;;;;;;6.07;3.97;;;;;;;;;;6224183;28;20046;-81
2023/09/26 07:55:59;;;;;;;5.35;3.60;;;;;;;;;;6222910;28;20105;-81
2023/09/26 07:59:01;;;;;;;4.75;3.05;;;;;;;;;;6224469;28;20042;-82
2023/09/26 08:02:03;;;;;;;7.40;3.72;;;;;;;;;;6222054;28;20534;-80
2023/09/26 08:05:05;;;;;;;6.40;3.65;;;;;;;;;;6221917;28;20069;-78
2023/09/26 08:08:07;;;;;;;6.32;3.58;;;;;;;;;;6233241;28;20050;-80
2023/09/26 08:11:10;;;;;;;4.75;3.08;;;;;;;;;;6222668;28;20046;-76
2023/09/26 08:14:12;;;;;;;5.57;3.40;;;;;;;;;;6226265;28;20046;-78
2023/09/26 08:17:15;;;;;;;6.85;3.30;;;;;;;;;;6226968;28;20057;-78
2023/09/26 08:20:21;;;;;;;7.88;3.53;;;;;;;;;;6224220;28;20073;-78
2023/09/26 08:23:25;;;;;;;4.72;3.10;;;;;;;;;;6227419;28;20052;-76
2023/09/26 08:26:44;;;;;;;7.53;3.45;;;;;;;;;;6222945;28;20056;-82
2023/09/26 08:30:02;;;;;;;5.85;3.45;;;;;;;;;;6223077;28;20048;-78
2023/09/26 08:33:04;;;;;;;5.80;3.85;;;;;;;;;;6225474;28;20048;-81
2023/09/26 08:36:16;;;;;;;7.10;3.83;;;;;;;;;;6224140;28;20046;-77
2023/09/26 08:39:18;;;;;;;4.87;3.30;;;;;;;;;;6217914;28;20065;-80
2023/09/26 08:42:27;;;;;;;5.78;3.38;;;;;;;;;;6218110;28;20441;-80
2023/09/26 08:45:29;;;;;;;4.85;3.35;;;;;;;;;;6223615;28;20049;-79
2023/09/26 08:48:32;;;;;;;4.90;3.30;;;;;;;;;;6226967;28;20050;-81
2023/09/26 08:51:34;;;;;;;3.30;2.90;;;;;;;;;;6223514;28;20052;-78
2023/09/26 08:54:36;;;;;;;4.03;2.85;;;;;;;;;;6226301;28;20168;-78
2023/09/26 08:57:38;;;;;;;5.68;3.38;;;;;;;;;;6209882;28;20046;-80
2023/09/26 09:00:40;;;;;;;5.05;2.75;;;;;;;;;;6208467;28;20045;-81
2023/09/26 09:03:42;;;;;;;4.22;3.22;;;;;;;;;;6211055;28;20080;-78
2023/09/26 09:06:44;;;;;;;4.70;3.47;;;;;;;;;;6211838;28;20065;-81
2023/09/26 09:10:22;;;;;;;4.38;3.40;;;;;;;;;;6213742;28;20069;-79
2023/09/26 09:13:28;;;;;;;3.53;3.10;;;;;;;;;;6151192;28;20062;-81
2023/09/26 09:16:30;;;;;;;3.97;3.20;;;;;;;;;;6210791;28;20045;-81
2023/09/26 09:19:48;;;;;;;3.22;2.92;;;;;;;;;;6207911;28;20180;-80
2023/09/26 09:23:05;;;;;;;4.43;2.80;;;;;;;;;;6213944;28;20145;-79
2023/09/26 09:26:13;;;;;;;3.58;3.00;;;;;;;;;;6227860;28;20038;-81
2023/09/26 09:29:20;;;;;;;6.97;3.30;;;;;;;;;;6202527;28;20152;-78
2023/09/26 09:32:22;;;;;;;6.65;2.90;;;;;;;;;;6213547;28;20382;-79
2023/09/26 09:35:24;;;;;;;3.30;3.00;;;;;;;;;;6189618;28;20042;-79
2023/09/26 09:38:26;;;;;;;3.30;2.83;;;;;;;;;;6193092;28;20042;-79
2023/09/26 09:41:31;;;;;;;6.65;2.97;;;;;;;;;;6208918;28;20502;-79
2023/09/26 09:44:33;;;;;;;4.68;3.10;;;;;;;;;;6208898;28;20527;-81
2023/09/26 09:47:37;;;;;;;6.22;3.00;;;;;;;;;;6206050;28;20420;-80
2023/09/26 09:50:41;;;;;;;4.28;2.83;;;;;;;;;;6209163;28;20050;-80
2023/09/26 09:53:54;;;;;;;3.90;2.38;;;;;;;;;;6204150;28;20150;-80
2023/09/26 09:56:58;;;;;;;3.33;2.58;;;;;;;;;;6208545;28;20053;-79
2023/09/26 10:00:01;;;;;;;3.65;2.97;;;;;;;;;;6208520;28;20116;-80
2023/09/26 10:03:05;;;;;;;3.10;2.83;;;;;;;;;;6205999;28;20104;-80
2023/09/26 10:06:08;;;;;;;2.75;2.50;;;;;;;;;;6206788;28;20049;-79
2023/09/26 10:09:19;;;;;;;4.38;2.45;;;;;;;;;;6205533;28;20037;-80
2023/09/26 10:12:23;;;;;;;2.95;2.75;;;;;;;;;;6206279;28;20048;-80
2023/09/26 10:15:25;;;;;;;2.85;2.40;;;;;;;;;;6208972;28;20042;-80
2023/09/26 10:18:27;;;;;;;3.57;2.70;;;;;;;;;;6188449;28;20507;-81
2023/09/26 10:21:30;;;;;;;3.43;2.50;;;;;;;;;;6204735;28;20049;-81
2023/09/26 10:24:44;;;;;;;2.70;2.50;;;;;;;;;;6207369;28;20053;-78
2023/09/26 10:27:47;;;;;;;5.53;2.58;;;;;;;;;;6200066;28;20056;-78
2023/09/26 10:31:03;;;;;;;2.75;2.50;;;;;;;;;;6209005;28;20049;-79
2023/09/26 10:34:05;;;;;;;2.72;2.45;;;;;;;;;;6206692;28;20065;-80
2023/09/26 10:37:08;;;;;;;2.92;2.28;;;;;;;;;;6207510;28;20120;-81
2023/09/26 10:40:11;;;;;;;;;;;;;;;;;;6191500;28;20046;-82
2023/09/26 10:43:12;;;;;;;2.47;2.28;;;;;;;;;;6190194;28;19932;-80
2023/09/26 10:46:18;;;;;;;3.25;2.40;;;;;;;;;;6207434;28;20049;-82
2023/09/26 10:49:22;;;;;;;2.65;2.30;;;;;;;;;;6202816;28;20044;-82
2023/09/26 10:52:25;;;;;;;2.95;2.22;;;;;;;;;;6203426;28;20130;-80
2023/09/26 10:55:27;;;;;;;3.42;2.50;;;;;;;;;;6206887;28;20054;-80
2023/09/26 10:58:32;;;;;;;2.70;2.50;;;;;;;;;;6211029;28;20042;-81
2023/09/26 11:01:37;;;;;;;3.67;2.38;;;;;;;;;;6213929;28;20049;-80
2023/09/26 11:05:04;;;;;;;3.65;2.60;;;;;;;;;;6211549;28;20147;-81
2023/09/26 11:08:06;;;;;;;2.83;2.50;;;;;;;;;;6210828;28;20128;-81
2023/09/26 11:11:28;;;;;;;3.05;2.47;;;;;;;;;;6201044;28;20054;-81
2023/09/26 11:14:32;;;;;;;3.27;2.50;;;;;;;;;;6216166;28;20746;-80
2023/09/26 11:17:37;;;;;;;3.72;2.30;;;;;;;;;;6192435;28;20046;-83
2023/09/26 11:20:40;;;;;;;3.30;2.45;;;;;;;;;;6209675;28;20038;-81
2023/09/26 11:23:57;;;;;;;2.45;2.25;;;;;;;;;;6204426;28;20073;-79
2023/09/26 11:27:04;;;;;;;2.75;2.53;;;;;;;;;;6208975;28;20042;-80
2023/09/26 11:30:09;;;;;;;2.80;2.53;;;;;;;;;;6203711;28;20043;-80
2023/09/26 11:33:10;;;;;;;3.15;2.50;;;;;;;;;;6207533;28;20046;-80
2023/09/26 11:36:13;;;;;;;2.70;2.50;;;;;;;;;;6209271;28;20061;-79
2023/09/26 11:39:23;;;;;;;2.50;2.30;;;;;;;;;;6207138;28;20049;-80
2023/09/26 11:42:25;;;;;;;2.53;2.22;;;;;;;;;;6209768;28;20045;-80
2023/09/26 11:45:28;;;;;;;2.60;2.40;;;;;;;;;;6213623;28;20049;-79
2023/09/26 11:48:30;;;;;;;5.07;2.67;;;;;;;;;;6208711;28;20046;-80
2023/09/26 11:51:32;;;;;;;;;;;;;;;;;;6213461;28;20053;-81
2023/09/26 11:54:36;;;;;;;2.97;2.60;;;;;;;;;;6209291;28;19928;-82
2023/09/26 11:57:38;;;;;;;3.80;2.63;;;;;;;;;;6218425;28;20057;-82
2023/09/26 12:00:39;;;;;;;2.50;2.30;;;;;;;;;;6222835;28;20045;-82
2023/09/26 12:03:41;;;;;;;2.60;2.40;;;;;;;;;;6213244;28;20262;-80
2023/09/26 12:06:43;;;;;;;3.37;2.60;;;;;;;;;;6233919;28;20060;-80
2023/09/26 12:09:44;;;;;;;2.60;2.30;;;;;;;;;;6232850;28;20497;-79
2023/09/26 12:12:46;;;;;;;2.80;2.60;;;;;;;;;;6234275;28;20053;-79
2023/09/26 12:15:48;;;;;;;2.90;2.45;;;;;;;;;;6238019;28;20238;-79
2023/09/26 12:18:50;;;;;;;3.05;2.60;;;;;;;;;;6238136;28;20523;-79
2023/09/26 12:21:51;;;;;;;4.70;4.17;;;;;;;;;;6232404;28;20045;-80
2023/09/26 12:24:53;;;;;;;2.70;2.50;;;;;;;;;;6227692;28;20119;-80
2023/09/26 12:27:55;;;;;;;4.90;2.77;;;;;;;;;;6211907;28;20423;-80
2023/09/26 12:30:56;;;;;;;3.33;2.70;;;;;;;;;;6212220;28;21086;-82
2023/09/26 12:33:58;;;;;;;3.00;2.20;;;;;;;;;;6215235;28;20457;-81
2023/09/26 12:37:00;;;;;;;2.80;2.60;;;;;;;;;;6213099;28;20061;-81
2023/09/26 12:40:12;;;;;;;4.93;2.77;;;;;;;;;;6211600;28;20444;-79
2023/09/26 12:43:14;;;;;;;3.00;2.47;;;;;;;;;;6215125;28;20061;-81
2023/09/26 12:46:16;;;;;;;3.45;2.35;;;;;;;;;;6215935;28;20060;-81
2023/09/26 12:49:18;;;;;;;2.58;2.38;;;;;;;;;;6214669;28;20124;-80
2023/09/26 12:52:20;;;;;;;2.53;2.33;;;;;;;;;;6214599;28;20042;-79
2023/09/26 12:55:21;;;;;;;2.78;2.20;;;;;;;;;;6213653;28;20053;-78
2023/09/26 12:58:23;;;;;;;3.75;2.40;;;;;;;;;;6212824;28;20042;-80
2023/09/26 13:01:25;;;;;;;3.20;2.53;;;;;;;;;;6207471;28;20132;-81
2023/09/26 13:04:27;;;;;;;3.58;2.53;;;;;;;;;;6209964;28;20042;-81
2023/09/26 13:07:29;;;;;;;14.80;5.07;;;;;;;;;;6205953;28;20045;-81
2023/09/26 13:10:31;;;;;;;3.08;2.47;;;;;;;;;;6207825;28;20176;-79
2023/09/26 13:13:39;;;;;;;13.32;4.55;;;;;;;;;;6207691;28;20045;-77
2023/09/26 13:16:40;;;;;;;3.00;2.40;;;;;;;;;;6207439;28;20041;-78
2023/09/26 13:19:43;;;;;;;3.20;2.30;;;;;;;;;;6209755;28;20448;-77
2023/09/26 13:22:45;;;;;;;3.70;2.30;;;;;;;;;;6209827;28;20037;-79
2023/09/26 13:25:47;;;;;;;13.97;5.43;;;;;;;;;;6152240;28;20050;-75
2023/09/26 13:28:49;;;;;;;13.15;5.95;;;;;;;;;;6208472;28;20468;-74
2023/09/26 13:31:51;;;;;;;4.40;2.50;;;;;;;;;;6211417;28;20061;-76
2023/09/26 13:34:54;;;;;;;2.63;2.38;;;;;;;;;;6205796;28;20057;-77
2023/09/26 13:37:56;;;;;;;2.45;2.25;;;;;;;;;;6214719;28;20058;-75
2023/09/26 13:40:57;;;;;;;3.55;2.50;;;;;;;;;;6214007;28;20054;-77
2023/09/26 13:43:59;;;;;;;3.92;2.33;;;;;;;;;;6212236;28;20049;-79
2023/09/26 13:47:01;;;;;;;2.58;2.15;;;;;;;;;;6217965;28;20455;-78
2023/09/26 13:50:03;;;;;;;6.55;2.53;;;;;;;;;;6198004;28;20034;-76
2023/09/26 13:53:05;;;;;;;3.40;2.10;;;;;;;;;;6212338;28;20054;-79
2023/09/26 13:56:07;;;;;;;4.68;2.65;;;;;;;;;;6211413;28;20117;-79
2023/09/26 13:59:09;;;;;;;2.35;2.17;;;;;;;;;;6209331;28;20077;-79
2023/09/26 14:02:11;;;;;;;3.05;2.17;;;;;;;;;;6209200;28;20081;-79
2023/09/26 14:05:13;;;;;;;2.40;2.22;;;;;;;;;;6212939;28;20042;-78
2023/09/26 14:08:21;;;;;;;3.67;2.70;;;;;;;;;;6213016;28;20125;-78
2023/09/26 14:11:22;;;;;;;2.37;2.00;;;;;;;;;;6205939;28;20042;-78
2023/09/26 14:14:24;;;;;;;2.88;2.25;;;;;;;;;;6201943;28;20460;-80
2023/09/26 14:17:26;;;;;;;3.92;2.28;;;;;;;;;;6202248;28;20435;-80
2023/09/26 14:20:27;;;;;;;4.60;2.47;;;;;;;;;;6186288;28;20046;-80
2023/09/26 14:23:29;;;;;;;2.92;2.20;;;;;;;;;;6200585;28;20052;-82
2023/09/26 14:26:31;;;;;;;3.38;2.42;;;;;;;;;;6200059;28;20042;-79
2023/09/26 14:29:33;;;;;;;2.50;2.30;;;;;;;;;;6201295;28;20041;-76
2023/09/26 14:32:37;;;;;;;3.78;2.70;;;;;;;;;;6203533;28;20137;-76
2023/09/26 14:35:40;;;;;;;3.05;2.30;;;;;;;;;;6199266;28;20048;-80
2023/09/26 14:38:41;;;;;;;2.50;2.30;;;;;;;;;;6203735;28;20114;-80
2023/09/26 14:41:45;;;;;;;2.60;2.38;;;;;;;;;;6205248;28;20041;-74
2023/09/26 14:44:46;;;;;;;3.00;2.70;;;;;;;;;;6200002;28;20401;-76
2023/09/26 14:47:48;;;;;;;2.27;2.00;;;;;;;;;;6201298;28;20041;-77
2023/09/26 14:50:50;;;;;;;3.28;2.40;;;;;;;;;;6203462;28;21041;-77
2023/09/26 14:53:52;;;;;;;5.68;3.70;;;;;;;;;;6206711;28;20057;-80
2023/09/26 14:56:53;;;;;;;5.00;3.47;;;;;;;;;;6227637;28;20054;-82
2023/09/26 14:59:57;;;;;;;6.57;4.15;;;;;;;;;;6208469;28;20800;-74
2023/09/26 15:02:58;;;;;;;3.08;2.78;;;;;;;;;;6203508;28;20060;-75
2023/09/26 15:06:00;;;;;;;3.35;2.40;;;;;;;;;;6201732;28;20573;-76
2023/09/26 15:09:03;;;;;;;3.65;3.10;;;;;;;;;;6197901;28;20042;-76
2023/09/26 15:12:05;;;;;;;2.95;2.28;;;;;;;;;;6205502;28;20050;-78
2023/09/26 15:15:07;;;;;;;2.58;2.38;;;;;;;;;;6203853;28;20049;-79
2023/09/26 15:18:09;;;;;;;;;;;;;;;;;;6207039;28;20113;-77
2023/09/26 15:21:10;;;;;;;;;;;;;;;;;;6213916;28;20394;-78
2023/09/26 15:24:12;;;;;;;;;;;;;;;;;;6207271;28;19928;-79
2023/09/26 15:27:14;;;;;;;;;;;;;;;;;;6209999;28;19925;-80
2023/09/26 15:30:15;;;;;;;;;;;;;;;;;;6216129;28;20387;-81
2023/09/26 15:33:18;;;;;;;;;;;;;;;;;;6220256;28;19929;-80
2023/09/26 15:36:20;;;;;;;;;;;;;;;;;;6213792;28;20052;-79
2023/09/26 15:39:21;;;;;;;;;;;;;;;;;;6206882;28;19932;-77
2023/09/26 15:42:23;;;;;;;;;;;;;;;;;;6218968;28;19936;-79
2023/09/26 15:45:25;;;;;;;;;;;;;;;;;;6218093;28;19929;-78
2023/09/26 15:48:26;;;;;;;;;;;;;;;;;;6208916;28;20391;-78
2023/09/26 15:51:28;;;;;;;;;;;;;;;;;;6199108;28;19925;-77
2023/09/26 15:54:29;;;;;;;;;;;;;;;;;;6187479;28;20431;-75
2023/09/26 15:57:32;;;;;;;;;;;;;;;;;;6201406;28;19928;-78
2023/09/26 16:00:34;;;;;;;;;;;;;;;;;;6206634;28;19932;-78
2023/09/26 16:03:38;;;;;;;;;;;;;;;;;;6211188;28;19929;-78
2023/09/26 16:06:40;;;;;;;;;;;;;;;;;;6199386;28;19997;-79
2023/09/26 16:09:41;;;;;;;;;;;;;;;;;;6225104;28;19929;-77
2023/09/26 16:12:44;;;;;;;;;;;;;;;;;;6209923;28;19929;-77
2023/09/26 16:16:07;;;;;;;;;;;;;;;;;;6203326;28;19989;-74
2023/09/26 16:19:09;;;;;;;;;;;;;;;;;;6198403;28;19928;-75
2023/09/26 16:22:11;;;;;;;;;;;;;;;;;;6204639;28;19921;-77
2023/09/26 16:25:12;;;;;;;;;;;;;;;;;;6204928;28;19921;-79
2023/09/26 16:28:14;;;;;;;;;;;;;;;;;;6210892;28;19925;-76
2023/09/26 16:31:15;;;;;;;;;;;;;;;;;;6211675;28;20000;-77
2023/09/26 16:34:18;;;;;;;;;;;;;;;;;;6210165;28;20299;-77
2023/09/26 16:37:20;;;;;;;;;;;;;;;;;;6210984;28;19957;-77
2023/09/26 16:40:22;;;;;;;;;;;;;;;;;;6209099;28;19925;-78
2023/09/26 16:43:23;;;;;;;;;;;;;;;;;;6213709;28;19929;-78
2023/09/26 16:46:25;;;;;;;;;;;;;;;;;;6217243;28;19945;-78
2023/09/26 16:49:26;;;;;;;;;;;;;;;;;;6217866;28;19922;-77
2023/09/26 16:52:28;;;;;;;;;;;;;;;;;;6210417;28;19921;-78
2023/09/26 16:55:30;;;;;;;;;;;;;;;;;;6217795;28;19932;-78
2023/09/26 16:58:32;;;;;;;;;;;;;;;;;;6222283;28;19921;-79
2023/09/26 17:01:33;;;;;;;;;;;;;;;;;;6213126;28;20004;-77
2023/09/26 17:04:36;;;;;;;;;;;;;;;;;;6211303;28;19935;-79
2023/09/26 17:07:38;;;;;;;;;;;;;;;;;;6209499;28;19921;-78
2023/09/26 17:10:39;;;;;;;;;;;;;;;;;;6198502;28;19933;-79
2023/09/26 17:13:41;;;;;;;;;;;;;;;;;;6210608;28;19948;-80
2023/09/26 17:16:43;;;;;;;;;;;;;;;;;;6192346;28;19921;-79
2023/09/26 17:19:44;;;;;;;;;;;;;;;;;;6212969;28;19935;-79
2023/09/26 17:22:47;;;;;;;;;;;;;;;;;;6212616;28;20012;-79
2023/09/26 17:25:48;;;;;;;;;;;;;;;;;;6206945;28;20425;-78
2023/09/26 17:28:50;;;;;;;;;;;;;;;;;;6213024;28;19921;-79
2023/09/26 17:31:52;;;;;;;;;;;;;;;;;;6211039;28;19921;-78
2023/09/26 17:34:54;;;;;;;;;;;;;;;;;;6214275;28;19925;-81
2023/09/26 17:37:57;;;;;;;;;;;;;;;;;;6195369;28;19930;-80
2023/09/26 17:40:59;;;;;;;;;;;;;;;;;;6199620;28;19921;-80
2023/09/26 17:44:01;;;;;;;;;;;;;;;;;;6211792;28;19921;-78
2023/09/26 17:47:02;;;;;;;;;;;;;;;;;;6212139;28;19980;-78
2023/09/26 17:50:04;;;;;;;;;;;;;;;;;;6210933;28;20584;-81
2023/09/26 17:53:06;;;;;;;;;;;;;;;;;;6213290;28;19929;-79
2023/09/26 17:56:08;;;;;;;;;;;;;;;;;;6211841;28;19921;-78
2023/09/26 17:59:09;;;;;;;;;;;;;;;;;;6211289;28;19961;-78
2023/09/26 18:02:11;;;;;;;;;;;;;;;;;;6213008;28;19976;-79
2023/09/26 18:05:12;;;;;;;;;;;;;;;;;;6211505;28;20407;-79
2023/09/26 18:08:14;;;;;;;;;;;;;;;;;;6210493;28;19927;-77
2023/09/26 18:11:16;;;;;;;;;;;;;;;;;;6193055;28;20315;-79
2023/09/26 18:14:18;;;;;;;;;;;;;;;;;;6200673;28;19928;-80
2023/09/26 18:17:20;;;;;;;;;;;;;;;;;;6205696;28;20020;-77
2023/09/26 18:20:21;;;;;;;;;;;;;;;;;;6209147;28;19932;-78
2023/09/26 18:23:23;;;;;;;;;;;;;;;;;;6223470;28;19909;-81
2023/09/26 18:26:25;;;;;;;;;;;;;;;;;;6202682;28;19957;-79
2023/09/26 18:29:27;;;;;;;;;;;;;;;;;;6201054;28;19921;-78
2023/09/26 18:32:28;;;;;;;;;;;;;;;;;;6205816;28;20274;-78
2023/09/26 18:35:30;;;;;;;;;;;;;;;;;;6196934;28;19933;-80
2023/09/26 18:38:32;;;;;;;;;;;;;;;;;;6206180;28;19928;-77
2023/09/26 18:41:34;;;;;;;;;;;;;;;;;;6200656;28;19929;-77